sensor_id;sensor_type;location;lat;lon;timestamp;pressure;altitude;pressure_sealevel;temperature;humidity
5522;BME280;2783;48.730;8.006;2022-08-16T00:00:26;99356.09;;;21.61;92.45
5522;BME280;2783;48.730;8.006;2022-08-16T00:02:53;99365.63;;;21.65;92.23
5522;BME280;2783;48.730;8.006;2022-08-16T00:05:21;99367.38;;;21.66;91.94
5522;BME280;2783;48.730;8.006;2022-08-16T00:07:48;99353.84;;;21.66;91.77
5522;BME280;2783;48.730;8.006;2022-08-16T00:10:14;99355.53;;;21.67;91.81
5522;BME280;2783;48.730;8.006;2022-08-16T00:12:40;99356.28;;;21.69;91.98
5522;BME280;2783;48.730;8.006;2022-08-16T00:15:21;99354.81;;;21.65;92.25
5522;BME280;2783;48.730;8.006;2022-08-16T00:17:47;99363.66;;;21.67;92.10
5522;BME280;2783;48.730;8.006;2022-08-16T00:20:13;99352.84;;;21.67;92.46
5522;BME280;2783;48.730;8.006;2022-08-16T00:22:41;99358.25;;;21.67;92.70
5522;BME280;2783;48.730;8.006;2022-08-16T00:25:10;99358.25;;;21.67;93.71
5522;BME280;2783;48.730;8.006;2022-08-16T00:27:36;99360.22;;;21.65;94.24
5522;BME280;2783;48.730;8.006;2022-08-16T00:30:03;99355.81;;;21.64;94.00
5522;BME280;2783;48.730;8.006;2022-08-16T00:32:29;99353.09;;;21.64;93.88
5522;BME280;2783;48.730;8.006;2022-08-16T00:34:54;99350.41;;;21.64;93.38
5522;BME280;2783;48.730;8.006;2022-08-16T00:37:24;99346.69;;;21.65;93.89
5522;BME280;2783;48.730;8.006;2022-08-16T00:39:51;99347.09;;;21.60;93.75
5522;BME280;2783;48.730;8.006;2022-08-16T00:42:17;99350.69;;;21.61;93.91
5522;BME280;2783;48.730;8.006;2022-08-16T00:44:46;99348.94;;;21.60;94.14
5522;BME280;2783;48.730;8.006;2022-08-16T00:47:15;99348.69;;;21.63;94.87
5522;BME280;2783;48.730;8.006;2022-08-16T00:49:42;99352.25;;;21.63;95.10
5522;BME280;2783;48.730;8.006;2022-08-16T00:52:08;99349.69;;;21.62;94.95
5522;BME280;2783;48.730;8.006;2022-08-16T00:54:34;99355.38;;;21.59;95.45
5522;BME280;2783;48.730;8.006;2022-08-16T00:57:00;99359.22;;;21.56;95.16
5522;BME280;2783;48.730;8.006;2022-08-16T00:59:31;99354.63;;;21.57;94.59
5522;BME280;2783;48.730;8.006;2022-08-16T01:01:58;99360.63;;;21.60;94.25
5522;BME280;2783;48.730;8.006;2022-08-16T01:04:25;99367.91;;;21.60;93.91
5522;BME280;2783;48.730;8.006;2022-08-16T01:06:51;99355.09;;;21.62;93.35
5522;BME280;2783;48.730;8.006;2022-08-16T01:09:17;99358.81;;;21.61;93.18
5522;BME280;2783;48.730;8.006;2022-08-16T01:11:44;99357.06;;;21.60;92.46
5522;BME280;2783;48.730;8.006;2022-08-16T01:14:15;99353.38;;;21.61;92.38
5522;BME280;2783;48.730;8.006;2022-08-16T01:16:44;99348.25;;;21.58;93.10
5522;BME280;2783;48.730;8.006;2022-08-16T01:19:14;99358.38;;;21.65;92.74
5522;BME280;2783;48.730;8.006;2022-08-16T01:22:18;99356.69;;;21.64;92.34
5522;BME280;2783;48.730;8.006;2022-08-16T01:24:49;99363.81;;;21.65;92.20
5522;BME280;2783;48.730;8.006;2022-08-16T01:27:19;99358.53;;;21.64;92.19
5522;BME280;2783;48.730;8.006;2022-08-16T01:29:50;99362.25;;;21.63;92.03
5522;BME280;2783;48.730;8.006;2022-08-16T01:32:18;99367.38;;;21.66;92.21
5522;BME280;2783;48.730;8.006;2022-08-16T01:34:44;99375.34;;;21.67;92.02
5522;BME280;2783;48.730;8.006;2022-08-16T01:37:11;99367.38;;;21.66;91.82
5522;BME280;2783;48.730;8.006;2022-08-16T01:39:37;99376.22;;;21.68;92.17
5522;BME280;2783;48.730;8.006;2022-08-16T01:42:09;99364.53;;;21.67;91.97
5522;BME280;2783;48.730;8.006;2022-08-16T01:44:37;99366.38;;;21.67;91.71
5522;BME280;2783;48.730;8.006;2022-08-16T01:47:04;99370.09;;;21.66;91.71
5522;BME280;2783;48.730;8.006;2022-08-16T01:49:34;99365.41;;;21.68;91.25
5522;BME280;2783;48.730;8.006;2022-08-16T01:52:06;99363.94;;;21.64;91.27
5522;BME280;2783;48.730;8.006;2022-08-16T01:54:33;99351.41;;;21.63;91.60
5522;BME280;2783;48.730;8.006;2022-08-16T01:56:59;99355.09;;;21.62;91.26
5522;BME280;2783;48.730;8.006;2022-08-16T01:59:28;99357.06;;;21.60;91.28
5522;BME280;2783;48.730;8.006;2022-08-16T02:01:54;99349.94;;;21.59;91.36
5522;BME280;2783;48.730;8.006;2022-08-16T02:04:21;99352.78;;;21.57;91.25
5522;BME280;2783;48.730;8.006;2022-08-16T02:06:46;99360.78;;;21.59;91.71
5522;BME280;2783;48.730;8.006;2022-08-16T02:09:12;99351.94;;;21.57;91.56
5522;BME280;2783;48.730;8.006;2022-08-16T02:11:43;99354.03;;;21.53;92.54
5522;BME280;2783;48.730;8.006;2022-08-16T02:14:09;99356.88;;;21.52;92.34
5522;BME280;2783;48.730;8.006;2022-08-16T02:16:34;99349.50;;;21.54;92.57
5522;BME280;2783;48.730;8.006;2022-08-16T02:19:00;99350.63;;;21.51;93.00
5522;BME280;2783;48.730;8.006;2022-08-16T02:21:26;99348.78;;;21.52;92.50
5522;BME280;2783;48.730;8.006;2022-08-16T02:23:52;99341.78;;;21.49;92.58
5522;BME280;2783;48.730;8.006;2022-08-16T02:26:18;99333.94;;;21.46;92.24
5522;BME280;2783;48.730;8.006;2022-08-16T02:28:43;99332.81;;;21.49;91.92
5522;BME280;2783;48.730;8.006;2022-08-16T02:31:10;99340.19;;;21.47;92.19
5522;BME280;2783;48.730;8.006;2022-08-16T02:33:36;99333.09;;;21.46;92.78
5522;BME280;2783;48.730;8.006;2022-08-16T02:36:03;99341.94;;;21.48;92.80
5522;BME280;2783;48.730;8.006;2022-08-16T02:38:29;99335.66;;;21.47;92.71
5522;BME280;2783;48.730;8.006;2022-08-16T02:40:56;99338.50;;;21.46;92.74
5522;BME280;2783;48.730;8.006;2022-08-16T02:43:24;99345.88;;;21.44;93.84
5522;BME280;2783;48.730;8.006;2022-08-16T02:45:49;99339.28;;;21.37;94.56
5522;BME280;2783;48.730;8.006;2022-08-16T02:48:15;99330.72;;;21.32;94.30
5522;BME280;2783;48.730;8.006;2022-08-16T02:50:40;99331.97;;;21.28;94.66
5522;BME280;2783;48.730;8.006;2022-08-16T02:53:06;99324.97;;;21.25;94.81
5522;BME280;2783;48.730;8.006;2022-08-16T02:55:32;99325.56;;;21.29;94.85
5522;BME280;2783;48.730;8.006;2022-08-16T02:57:57;99326.31;;;21.31;94.61
5522;BME280;2783;48.730;8.006;2022-08-16T03:00:23;99319.78;;;21.33;94.32
5522;BME280;2783;48.730;8.006;2022-08-16T03:02:48;99322.50;;;21.33;93.65
5522;BME280;2783;48.730;8.006;2022-08-16T03:05:14;99319.06;;;21.31;93.56
5522;BME280;2783;48.730;8.006;2022-08-16T03:07:40;99322.22;;;21.36;93.66
5522;BME280;2783;48.730;8.006;2022-08-16T03:10:08;99323.03;;;21.37;93.78
5522;BME280;2783;48.730;8.006;2022-08-16T03:12:34;99329.47;;;21.36;93.66
5522;BME280;2783;48.730;8.006;2022-08-16T03:15:00;99323.31;;;21.34;93.97
5522;BME280;2783;48.730;8.006;2022-08-16T03:17:26;99320.63;;;21.34;93.59
5522;BME280;2783;48.730;8.006;2022-08-16T03:19:51;99311.34;;;21.27;94.25
5522;BME280;2783;48.730;8.006;2022-08-16T03:22:19;99314.25;;;21.14;95.00
5522;BME280;2783;48.730;8.006;2022-08-16T03:24:44;99310.25;;;21.09;95.08
5522;BME280;2783;48.730;8.006;2022-08-16T03:27:10;99309.66;;;21.05;95.65
5522;BME280;2783;48.730;8.006;2022-08-16T03:29:36;99319.31;;;21.08;95.63
5522;BME280;2783;48.730;8.006;2022-08-16T03:32:02;99321.09;;;20.98;96.17
5522;BME280;2783;48.730;8.006;2022-08-16T03:34:29;99304.91;;;20.86;96.11
5522;BME280;2783;48.730;8.006;2022-08-16T03:36:55;99299.31;;;20.78;96.54
5522;BME280;2783;48.730;8.006;2022-08-16T03:39:21;99307.16;;;20.81;96.54
5522;BME280;2783;48.730;8.006;2022-08-16T03:41:47;99313.81;;;20.77;96.93
5522;BME280;2783;48.730;8.006;2022-08-16T03:44:13;99312.22;;;20.75;97.32
5522;BME280;2783;48.730;8.006;2022-08-16T03:46:39;99301.56;;;20.73;97.75
5522;BME280;2783;48.730;8.006;2022-08-16T03:49:04;99302.78;;;20.69;97.01
5522;BME280;2783;48.730;8.006;2022-08-16T03:51:31;99302.66;;;20.71;97.40
5522;BME280;2783;48.730;8.006;2022-08-16T03:53:56;99300.09;;;20.69;97.35
5522;BME280;2783;48.730;8.006;2022-08-16T03:56:22;99306.50;;;20.68;98.16
5522;BME280;2783;48.730;8.006;2022-08-16T03:58:47;99314.25;;;20.62;98.28
5522;BME280;2783;48.730;8.006;2022-08-16T04:01:13;99310.69;;;20.61;99.07
5522;BME280;2783;48.730;8.006;2022-08-16T04:03:39;99306.78;;;20.54;98.55
5522;BME280;2783;48.730;8.006;2022-08-16T04:06:04;99312.47;;;20.51;98.78
5522;BME280;2783;48.730;8.006;2022-08-16T04:08:31;99318.00;;;20.50;98.94
5522;BME280;2783;48.730;8.006;2022-08-16T04:10:57;99316.41;;;20.47;98.95
5522;BME280;2783;48.730;8.006;2022-08-16T04:13:23;99318.38;;;20.45;99.40
5522;BME280;2783;48.730;8.006;2022-08-16T04:15:49;99318.78;;;20.41;99.20
5522;BME280;2783;48.730;8.006;2022-08-16T04:18:16;99323.31;;;20.40;98.80
5522;BME280;2783;48.730;8.006;2022-08-16T04:20:42;99321.63;;;20.39;99.47
5522;BME280;2783;48.730;8.006;2022-08-16T04:23:09;99322.56;;;20.38;99.19
5522;BME280;2783;48.730;8.006;2022-08-16T04:25:35;99332.41;;;20.39;98.80
5522;BME280;2783;48.730;8.006;2022-08-16T04:28:00;99320.63;;;20.40;98.90
5522;BME280;2783;48.730;8.006;2022-08-16T04:30:26;99318.91;;;20.39;98.67
5522;BME280;2783;48.730;8.006;2022-08-16T04:32:52;99318.31;;;20.36;98.53
5522;BME280;2783;48.730;8.006;2022-08-16T04:35:20;99321.72;;;20.38;98.57
5522;BME280;2783;48.730;8.006;2022-08-16T04:37:47;99323.72;;;20.36;98.16
5522;BME280;2783;48.730;8.006;2022-08-16T04:40:14;99332.66;;;20.36;98.41
5522;BME280;2783;48.730;8.006;2022-08-16T04:42:40;99334.38;;;20.37;99.08
5522;BME280;2783;48.730;8.006;2022-08-16T04:45:09;99336.22;;;20.37;98.64
5522;BME280;2783;48.730;8.006;2022-08-16T04:47:35;99329.94;;;20.36;99.22
5522;BME280;2783;48.730;8.006;2022-08-16T04:50:13;99325.06;;;20.30;99.13
5522;BME280;2783;48.730;8.006;2022-08-16T04:52:39;99344.44;;;20.35;99.14
5522;BME280;2783;48.730;8.006;2022-08-16T04:55:10;99339.31;;;20.32;99.45
5522;BME280;2783;48.730;8.006;2022-08-16T04:57:36;99339.31;;;20.32;99.30
5522;BME280;2783;48.730;8.006;2022-08-16T05:00:04;99345.19;;;20.37;99.09
5522;BME280;2783;48.730;8.006;2022-08-16T05:02:31;99347.88;;;20.37;98.72
5522;BME280;2783;48.730;8.006;2022-08-16T05:04:56;99359.44;;;20.39;99.03
5522;BME280;2783;48.730;8.006;2022-08-16T05:07:21;99352.28;;;20.38;99.32
5522;BME280;2783;48.730;8.006;2022-08-16T05:09:47;99356.47;;;20.42;99.67
5522;BME280;2783;48.730;8.006;2022-08-16T05:12:12;99361.63;;;20.45;99.03
5522;BME280;2783;48.730;8.006;2022-08-16T05:14:38;99357.78;;;20.48;99.16
5522;BME280;2783;48.730;8.006;2022-08-16T05:17:03;99363.94;;;20.50;98.92
5522;BME280;2783;48.730;8.006;2022-08-16T05:19:28;99357.16;;;20.55;98.79
5522;BME280;2783;48.730;8.006;2022-08-16T05:21:54;99361.06;;;20.62;98.68
5522;BME280;2783;48.730;8.006;2022-08-16T05:24:19;99365.81;;;20.70;98.04
5522;BME280;2783;48.730;8.006;2022-08-16T05:26:45;99364.19;;;20.78;97.47
5522;BME280;2783;48.730;8.006;2022-08-16T05:29:10;99363.41;;;20.87;96.91
5522;BME280;2783;48.730;8.006;2022-08-16T05:31:35;99365.09;;;21.00;96.80
5522;BME280;2783;48.730;8.006;2022-08-16T05:34:02;99371.72;;;21.07;96.11
5522;BME280;2783;48.730;8.006;2022-08-16T05:36:28;99369.19;;;21.15;95.49
5522;BME280;2783;48.730;8.006;2022-08-16T05:38:53;99375.28;;;21.28;94.79
5522;BME280;2783;48.730;8.006;2022-08-16T05:41:19;99378.34;;;21.44;94.20
5522;BME280;2783;48.730;8.006;2022-08-16T05:43:45;99371.59;;;21.59;93.71
5522;BME280;2783;48.730;8.006;2022-08-16T05:46:11;99384.88;;;21.82;92.08
5522;BME280;2783;48.730;8.006;2022-08-16T05:48:37;99387.19;;;21.96;90.71
5522;BME280;2783;48.730;8.006;2022-08-16T05:51:02;99388.97;;;22.07;89.71
5522;BME280;2783;48.730;8.006;2022-08-16T05:53:28;99388.69;;;22.10;89.20
5522;BME280;2783;48.730;8.006;2022-08-16T05:55:54;99397.13;;;22.16;88.91
5522;BME280;2783;48.730;8.006;2022-08-16T05:58:19;99386.44;;;22.25;88.54
5522;BME280;2783;48.730;8.006;2022-08-16T06:00:45;99397.88;;;22.28;88.55
5522;BME280;2783;48.730;8.006;2022-08-16T06:03:10;99385.03;;;22.30;87.79
5522;BME280;2783;48.730;8.006;2022-08-16T06:05:37;99385.47;;;22.35;87.89
5522;BME280;2783;48.730;8.006;2022-08-16T06:08:02;99392.19;;;22.41;87.07
5522;BME280;2783;48.730;8.006;2022-08-16T06:10:28;99390.00;;;22.55;86.56
5522;BME280;2783;48.730;8.006;2022-08-16T06:12:53;99383.13;;;22.61;85.93
5522;BME280;2783;48.730;8.006;2022-08-16T06:15:19;99396.81;;;22.69;86.14
5522;BME280;2783;48.730;8.006;2022-08-16T06:17:45;99394.69;;;22.82;85.38
5522;BME280;2783;48.730;8.006;2022-08-16T06:20:17;99402.56;;;22.94;85.08
5522;BME280;2783;48.730;8.006;2022-08-16T06:22:43;99392.44;;;23.06;83.97
5522;BME280;2783;48.730;8.006;2022-08-16T06:25:10;99399.56;;;23.16;83.47
5522;BME280;2783;48.730;8.006;2022-08-16T06:27:36;99403.16;;;23.26;83.14
5522;BME280;2783;48.730;8.006;2022-08-16T06:30:05;99408.00;;;23.42;81.64
5522;BME280;2783;48.730;8.006;2022-08-16T06:32:31;99400.53;;;23.54;81.03
5522;BME280;2783;48.730;8.006;2022-08-16T06:34:56;99399.66;;;23.63;80.44
5522;BME280;2783;48.730;8.006;2022-08-16T06:37:22;99398.78;;;23.72;79.87
5522;BME280;2783;48.730;8.006;2022-08-16T06:39:47;99401.31;;;23.83;78.49
5522;BME280;2783;48.730;8.006;2022-08-16T06:42:13;99407.47;;;23.85;78.15
5522;BME280;2783;48.730;8.006;2022-08-16T06:44:38;99411.47;;;23.90;78.09
5522;BME280;2783;48.730;8.006;2022-08-16T06:47:04;99409.44;;;24.02;78.07
5522;BME280;2783;48.730;8.006;2022-08-16T06:49:29;99409.81;;;24.16;77.39
5522;BME280;2783;48.730;8.006;2022-08-16T06:51:56;99405.13;;;24.36;76.52
5522;BME280;2783;48.730;8.006;2022-08-16T06:54:21;99404.41;;;24.61;76.38
5522;BME280;2783;48.730;8.006;2022-08-16T06:56:46;99403.66;;;24.86;75.01
5522;BME280;2783;48.730;8.006;2022-08-16T06:59:12;99405.31;;;24.97;72.85
5522;BME280;2783;48.730;8.006;2022-08-16T07:01:38;99401.19;;;25.10;71.32
5522;BME280;2783;48.730;8.006;2022-08-16T07:04:03;99398.75;;;25.25;71.08
5522;BME280;2783;48.730;8.006;2022-08-16T07:06:28;99402.63;;;25.57;70.87
5522;BME280;2783;48.730;8.006;2022-08-16T07:08:55;99408.22;;;25.81;69.67
5522;BME280;2783;48.730;8.006;2022-08-16T07:11:21;99408.91;;;26.01;67.60
5522;BME280;2783;48.730;8.006;2022-08-16T07:13:47;99407.78;;;26.20;66.28
5522;BME280;2783;48.730;8.006;2022-08-16T07:16:13;99409.63;;;26.45;65.80
5522;BME280;2783;48.730;8.006;2022-08-16T07:18:44;99413.31;;;26.69;64.41
5522;BME280;2783;48.730;8.006;2022-08-16T07:21:11;99414.41;;;27.08;63.24
5522;BME280;2783;48.730;8.006;2022-08-16T07:23:38;99397.22;;;27.32;61.67
5522;BME280;2783;48.730;8.006;2022-08-16T07:26:07;99409.47;;;27.76;60.34
5522;BME280;2783;48.730;8.006;2022-08-16T07:28:33;99416.94;;;28.14;59.10
5522;BME280;2783;48.730;8.006;2022-08-16T07:30:59;99407.94;;;28.44;59.15
5522;BME280;2783;48.730;8.006;2022-08-16T07:33:28;99411.31;;;28.63;57.36
5522;BME280;2783;48.730;8.006;2022-08-16T07:35:53;99414.59;;;28.03;58.76
5522;BME280;2783;48.730;8.006;2022-08-16T07:38:19;99422.50;;;27.34;60.85
5522;BME280;2783;48.730;8.006;2022-08-16T07:40:44;99417.97;;;26.93;62.94
5522;BME280;2783;48.730;8.006;2022-08-16T07:43:10;99419.78;;;26.68;62.98
5522;BME280;2783;48.730;8.006;2022-08-16T07:45:35;99419.47;;;26.79;63.09
5522;BME280;2783;48.730;8.006;2022-08-16T07:48:00;99418.38;;;27.30;61.39
5522;BME280;2783;48.730;8.006;2022-08-16T07:50:26;99418.38;;;27.70;59.23
5522;BME280;2783;48.730;8.006;2022-08-16T07:52:52;99424.13;;;28.15;58.85
5522;BME280;2783;48.730;8.006;2022-08-16T07:55:17;99418.69;;;28.54;57.85
5522;BME280;2783;48.730;8.006;2022-08-16T07:57:43;99406.84;;;28.92;55.26
5522;BME280;2783;48.730;8.006;2022-08-16T08:00:10;99412.63;;;29.28;56.04
5522;BME280;2783;48.730;8.006;2022-08-16T08:02:37;99419.69;;;29.67;53.13
5522;BME280;2783;48.730;8.006;2022-08-16T08:05:02;99421.44;;;29.98;52.59
5522;BME280;2783;48.730;8.006;2022-08-16T08:07:28;99419.47;;;30.06;51.48
5522;BME280;2783;48.730;8.006;2022-08-16T08:09:55;99431.03;;;30.16;51.61
5522;BME280;2783;48.730;8.006;2022-08-16T08:12:21;99421.66;;;30.25;50.49
5522;BME280;2783;48.730;8.006;2022-08-16T08:14:47;99417.50;;;30.58;50.15
5522;BME280;2783;48.730;8.006;2022-08-16T08:17:14;99422.00;;;30.95;49.48
5522;BME280;2783;48.730;8.006;2022-08-16T08:19:39;99422.06;;;31.02;49.07
5522;BME280;2783;48.730;8.006;2022-08-16T08:22:05;99430.59;;;31.28;47.40
5522;BME280;2783;48.730;8.006;2022-08-16T08:24:31;99419.66;;;31.13;49.11
5522;BME280;2783;48.730;8.006;2022-08-16T08:26:58;99423.88;;;31.51;48.50
5522;BME280;2783;48.730;8.006;2022-08-16T08:29:24;99419.34;;;31.65;47.04
5522;BME280;2783;48.730;8.006;2022-08-16T08:31:51;99424.84;;;31.65;46.21
5522;BME280;2783;48.730;8.006;2022-08-16T08:34:17;99432.50;;;31.69;46.57
5522;BME280;2783;48.730;8.006;2022-08-16T08:36:43;99431.13;;;31.59;46.01
5522;BME280;2783;48.730;8.006;2022-08-16T08:39:09;99430.63;;;31.91;45.18
5522;BME280;2783;48.730;8.006;2022-08-16T08:41:34;99436.78;;;32.27;45.34
5522;BME280;2783;48.730;8.006;2022-08-16T08:44:00;99431.28;;;32.27;43.79
5522;BME280;2783;48.730;8.006;2022-08-16T08:46:26;99430.63;;;32.59;43.62
5522;BME280;2783;48.730;8.006;2022-08-16T08:48:53;99433.59;;;32.58;43.51
5522;BME280;2783;48.730;8.006;2022-08-16T08:51:19;99441.91;;;32.64;45.01
5522;BME280;2783;48.730;8.006;2022-08-16T08:53:45;99444.13;;;32.88;42.28
5522;BME280;2783;48.730;8.006;2022-08-16T08:56:11;99438.53;;;33.09;42.43
5522;BME280;2783;48.730;8.006;2022-08-16T08:58:37;99444.44;;;33.06;41.98
5522;BME280;2783;48.730;8.006;2022-08-16T09:01:04;99436.44;;;33.24;42.25
5522;BME280;2783;48.730;8.006;2022-08-16T09:03:31;99422.94;;;33.49;41.96
5522;BME280;2783;48.730;8.006;2022-08-16T09:05:57;99442.47;;;33.74;40.34
5522;BME280;2783;48.730;8.006;2022-08-16T09:08:22;99439.28;;;33.90;40.65
5522;BME280;2783;48.730;8.006;2022-08-16T09:10:48;99445.25;;;33.67;41.46
5522;BME280;2783;48.730;8.006;2022-08-16T09:13:14;99446.72;;;33.70;40.94
5522;BME280;2783;48.730;8.006;2022-08-16T09:15:40;99445.44;;;33.66;41.01
5522;BME280;2783;48.730;8.006;2022-08-16T09:18:05;99445.44;;;34.24;40.89
5522;BME280;2783;48.730;8.006;2022-08-16T09:20:31;99452.44;;;34.53;40.13
5522;BME280;2783;48.730;8.006;2022-08-16T09:22:57;99455.59;;;34.70;38.88
5522;BME280;2783;48.730;8.006;2022-08-16T09:25:23;99451.66;;;34.97;38.15
5522;BME280;2783;48.730;8.006;2022-08-16T09:27:49;99459.22;;;35.14;37.62
5522;BME280;2783;48.730;8.006;2022-08-16T09:30:15;99455.59;;;35.20;38.28
5522;BME280;2783;48.730;8.006;2022-08-16T09:32:40;99456.53;;;35.01;37.00
5522;BME280;2783;48.730;8.006;2022-08-16T09:35:06;99445.88;;;34.21;38.88
5522;BME280;2783;48.730;8.006;2022-08-16T09:37:33;99441.81;;;34.24;40.53
5522;BME280;2783;48.730;8.006;2022-08-16T09:39:59;99451.59;;;34.33;40.07
5522;BME280;2783;48.730;8.006;2022-08-16T09:42:28;99449.88;;;34.32;38.90
5522;BME280;2783;48.730;8.006;2022-08-16T09:44:54;99456.50;;;33.85;39.82
5522;BME280;2783;48.730;8.006;2022-08-16T09:47:20;99455.66;;;33.98;39.48
5522;BME280;2783;48.730;8.006;2022-08-16T09:49:46;99451.00;;;34.05;40.03
5522;BME280;2783;48.730;8.006;2022-08-16T09:52:11;99456.88;;;34.54;39.07
5522;BME280;2783;48.730;8.006;2022-08-16T09:54:37;99455.59;;;34.70;37.80
5522;BME280;2783;48.730;8.006;2022-08-16T09:57:05;99455.19;;;34.27;38.20
5522;BME280;2783;48.730;8.006;2022-08-16T09:59:30;99454.78;;;33.65;39.27
5522;BME280;2783;48.730;8.006;2022-08-16T10:01:57;99445.34;;;33.39;39.96
5522;BME280;2783;48.730;8.006;2022-08-16T10:04:22;99451.25;;;33.17;40.56
5522;BME280;2783;48.730;8.006;2022-08-16T10:06:50;99438.81;;;33.41;39.67
5522;BME280;2783;48.730;8.006;2022-08-16T10:09:16;99437.63;;;34.02;40.13
5522;BME280;2783;48.730;8.006;2022-08-16T10:11:41;99445.88;;;34.28;38.55
5522;BME280;2783;48.730;8.006;2022-08-16T10:14:26;99451.00;;;33.98;40.43
5522;BME280;2783;48.730;8.006;2022-08-16T10:16:57;99441.19;;;33.70;40.33
5522;BME280;2783;48.730;8.006;2022-08-16T10:19:23;99451.72;;;33.27;40.09
5522;BME280;2783;48.730;8.006;2022-08-16T10:21:48;99456.53;;;32.65;40.44
5522;BME280;2783;48.730;8.006;2022-08-16T10:24:14;99448.59;;;32.21;41.14
5522;BME280;2783;48.730;8.006;2022-08-16T10:26:40;99444.31;;;32.40;40.54
5522;BME280;2783;48.730;8.006;2022-08-16T10:29:06;99443.16;;;33.02;40.57
5522;BME280;2783;48.730;8.006;2022-08-16T10:31:32;99439.28;;;33.77;40.64
5522;BME280;2783;48.730;8.006;2022-08-16T10:33:57;99441.19;;;34.22;38.37
5522;BME280;2783;48.730;8.006;2022-08-16T10:36:25;99440.56;;;34.46;37.15
5522;BME280;2783;48.730;8.006;2022-08-16T10:38:51;99444.50;;;34.76;36.78
5522;BME280;2783;48.730;8.006;2022-08-16T10:41:16;99441.44;;;35.04;37.13
5522;BME280;2783;48.730;8.006;2022-08-16T10:43:42;99448.72;;;35.29;35.17
5522;BME280;2783;48.730;8.006;2022-08-16T10:46:09;99452.78;;;35.27;35.77
5522;BME280;2783;48.730;8.006;2022-08-16T10:48:39;99446.47;;;34.56;35.88
5522;BME280;2783;48.730;8.006;2022-08-16T10:51:06;99444.47;;;34.83;36.43
5522;BME280;2783;48.730;8.006;2022-08-16T10:53:32;99437.97;;;35.15;37.07
5522;BME280;2783;48.730;8.006;2022-08-16T10:55:58;99447.88;;;35.66;36.17
5522;BME280;2783;48.730;8.006;2022-08-16T10:58:25;99455.81;;;35.88;35.38
5522;BME280;2783;48.730;8.006;2022-08-16T11:00:50;99449.69;;;36.28;34.85
5522;BME280;2783;48.730;8.006;2022-08-16T11:03:16;99451.22;;;36.49;33.97
5522;BME280;2783;48.730;8.006;2022-08-16T11:05:41;99446.38;;;36.62;34.09
5522;BME280;2783;48.730;8.006;2022-08-16T11:08:08;99449.91;;;36.51;34.14
5522;BME280;2783;48.730;8.006;2022-08-16T11:10:38;99450.47;;;35.93;33.95
5522;BME280;2783;48.730;8.006;2022-08-16T11:13:04;99438.88;;;35.71;34.25
5522;BME280;2783;48.730;8.006;2022-08-16T11:15:31;99435.75;;;35.92;35.38
5522;BME280;2783;48.730;8.006;2022-08-16T11:17:57;99429.69;;;35.77;35.22
5522;BME280;2783;48.730;8.006;2022-08-16T11:20:23;99440.28;;;36.11;34.38
5522;BME280;2783;48.730;8.006;2022-08-16T11:22:49;99438.44;;;36.48;33.43
5522;BME280;2783;48.730;8.006;2022-08-16T11:25:18;99432.13;;;36.59;32.92
5522;BME280;2783;48.730;8.006;2022-08-16T11:27:44;99434.03;;;36.40;32.83
5522;BME280;2783;48.730;8.006;2022-08-16T11:30:13;99424.59;;;36.23;32.95
5522;BME280;2783;48.730;8.006;2022-08-16T11:32:39;99431.28;;;36.58;32.85
5522;BME280;2783;48.730;8.006;2022-08-16T11:35:14;99440.09;;;36.31;31.57
5522;BME280;2783;48.730;8.006;2022-08-16T11:37:54;99428.03;;;36.43;31.82
5522;BME280;2783;48.730;8.006;2022-08-16T11:40:21;99424.16;;;36.87;31.94
5522;BME280;2783;48.730;8.006;2022-08-16T11:42:46;99427.91;;;37.22;31.11
5522;BME280;2783;48.730;8.006;2022-08-16T11:45:12;99422.19;;;36.87;30.58
5522;BME280;2783;48.730;8.006;2022-08-16T11:47:37;99422.34;;;36.38;31.49
5522;BME280;2783;48.730;8.006;2022-08-16T11:50:05;99423.13;;;36.21;32.43
5522;BME280;2783;48.730;8.006;2022-08-16T11:52:34;99432.38;;;36.57;31.53
5522;BME280;2783;48.730;8.006;2022-08-16T11:55:00;99433.34;;;36.45;31.74
5522;BME280;2783;48.730;8.006;2022-08-16T11:57:26;99421.56;;;36.85;32.28
5522;BME280;2783;48.730;8.006;2022-08-16T11:59:52;99436.13;;;36.99;30.67
5522;BME280;2783;48.730;8.006;2022-08-16T12:02:18;99422.66;;;37.03;32.19
5522;BME280;2783;48.730;8.006;2022-08-16T12:04:44;99419.09;;;37.43;31.62
5522;BME280;2783;48.730;8.006;2022-08-16T12:07:09;99413.81;;;37.53;31.25
5522;BME280;2783;48.730;8.006;2022-08-16T12:09:37;99416.53;;;37.42;31.96
5522;BME280;2783;48.730;8.006;2022-08-16T12:12:03;99416.78;;;37.40;30.94
5522;BME280;2783;48.730;8.006;2022-08-16T12:14:29;99417.50;;;36.70;31.34
5522;BME280;2783;48.730;8.006;2022-08-16T12:16:56;99419.81;;;36.91;31.33
5522;BME280;2783;48.730;8.006;2022-08-16T12:19:23;99416.25;;;37.02;31.34
5522;BME280;2783;48.730;8.006;2022-08-16T12:21:48;99412.41;;;37.03;30.16
5522;BME280;2783;48.730;8.006;2022-08-16T12:24:14;99409.09;;;36.76;31.28
5522;BME280;2783;48.730;8.006;2022-08-16T12:26:40;99416.66;;;36.27;31.27
5522;BME280;2783;48.730;8.006;2022-08-16T12:29:05;99412.94;;;35.65;31.92
5522;BME280;2783;48.730;8.006;2022-08-16T12:31:31;99413.19;;;34.95;33.29
5522;BME280;2783;48.730;8.006;2022-08-16T12:33:57;99415.13;;;35.26;32.51
5522;BME280;2783;48.730;8.006;2022-08-16T12:36:22;99408.56;;;35.20;32.92
5522;BME280;2783;48.730;8.006;2022-08-16T12:38:48;99401.81;;;35.72;31.77
5522;BME280;2783;48.730;8.006;2022-08-16T12:41:13;99400.56;;;35.99;33.44
5522;BME280;2783;48.730;8.006;2022-08-16T12:43:40;99410.47;;;36.07;31.94
5522;BME280;2783;48.730;8.006;2022-08-16T12:46:08;99404.06;;;35.26;32.48
5522;BME280;2783;48.730;8.006;2022-08-16T12:48:35;99402.84;;;35.77;32.60
5522;BME280;2783;48.730;8.006;2022-08-16T12:51:22;99408.28;;;35.66;31.96
5522;BME280;2783;48.730;8.006;2022-08-16T12:53:49;99398.47;;;35.95;32.80
5522;BME280;2783;48.730;8.006;2022-08-16T12:56:16;99396.34;;;35.65;31.98
5522;BME280;2783;48.730;8.006;2022-08-16T12:58:44;99395.78;;;35.19;32.03
5522;BME280;2783;48.730;8.006;2022-08-16T13:01:11;99380.06;;;35.20;32.72
5522;BME280;2783;48.730;8.006;2022-08-16T13:03:37;99387.50;;;35.19;33.10
5522;BME280;2783;48.730;8.006;2022-08-16T13:06:05;99389.91;;;35.09;32.34
5522;BME280;2783;48.730;8.006;2022-08-16T13:08:31;99383.94;;;35.12;33.20
5522;BME280;2783;48.730;8.006;2022-08-16T13:10:57;99382.97;;;35.62;32.86
5522;BME280;2783;48.730;8.006;2022-08-16T13:13:24;99386.19;;;35.59;32.16
5522;BME280;2783;48.730;8.006;2022-08-16T13:15:52;99382.31;;;36.10;32.29
5522;BME280;2783;48.730;8.006;2022-08-16T13:18:18;99387.59;;;36.18;31.60